Etusivu
METAR-TAF:

METAR-TAF

Lentoasemat :

Caldwell Industrial Airport

Caldwell, Idaho, Yhdysvallat

Leveyspiiri: 43-38N, Pituuspiiri: 116-38W, korkeus merenpinnasta: 740 m

Tämänhetkinen sää

Tämä raportti tehtiin 1 tunti ja 3 minuuttia sitten, kello 15.56 UTC
Tuuli 7 kn kaakosta
Lämpötila 7°C
Kosteus 53%
Ilmanpaine 1019 hPa
Näkyvyys: 16.1 km
selkeää

METAR: KEUL 301556Z AUTO 13007KT 10SM CLR 07/M02 A3008 RMK AO2 SLP192 T00721017

Aika: 10:59 (16:59 UTC)

Sääennuste

Tämä raportti tehtiin 5 tuntia ja 28 minuuttia sitten, kello 11.31 UTC
Ennuste voimassa 30. päivästä klo 12 UTC - 31. päivään klo 12 UTC
Tuuli 5 kn idästä
Näkyvyys: 10 km
selkeää
From 30. päivästä klo 2000 UTC
Tuuli 8 kn lännestä/luoteesta puuskistuen 18 kn:hen
Näkyvyys: 10 km
Hajanaisia pilviä 15000 ft:n korkeudessa
From 31. päivästä klo 0600 UTC
Tuuli 7 kn lännestä/luoteesta
Näkyvyys: 10 km
selkeää

TAF: KEUL 301131Z 3012/3112 10005KT P6SM SKC FM302000 30008G18KT P6SM SCT150 FM310600 30007KT P6SM SKC

Säähavainnot ja -ennusteet yli 4000 lentoasemalta (METAR- ja TAF-raportit).

Käytössä olevat sääasemat on merkitty karttaan keltaisilla ja punaisilla pisteillä.

Aseta hiiri pisteen päälle nähdäksesi sääaseman nimen.

Klikkaa sitten nähdäksesi säähavainnot ja -ennusteet.

Kartan vaihtaminen: klikkaa mustalla rastilla varustettuja vihreitä pisteitä, niin voit zoomata sisään; viivalla varustettua vihreää pistettä, niin voit zoomata ulos tai vihreitä nuolia, niin pääset viereisille kartoille.


METAR-TAF: